sensor_id;sensor_type;location;lat;lon;timestamp;P1;durP1;ratioP1;P2;durP2;ratioP2
78365;SDS011;67641;59.864;30.464;2024-02-21T00:01:57;7.85;;;4.35;;
78365;SDS011;67641;59.864;30.464;2024-02-21T00:04:23;8.40;;;4.30;;
78365;SDS011;67641;59.864;30.464;2024-02-21T00:06:50;7.55;;;4.38;;
78365;SDS011;67641;59.864;30.464;2024-02-21T00:09:16;9.48;;;4.70;;
78365;SDS011;67641;59.864;30.464;2024-02-21T00:11:45;7.80;;;4.72;;
78365;SDS011;67641;59.864;30.464;2024-02-21T00:14:11;10.13;;;4.68;;
78365;SDS011;67641;59.864;30.464;2024-02-21T00:16:38;8.43;;;4.20;;
78365;SDS011;67641;59.864;30.464;2024-02-21T00:19:04;10.05;;;4.63;;
78365;SDS011;67641;59.864;30.464;2024-02-21T00:21:30;8.98;;;4.20;;
78365;SDS011;67641;59.864;30.464;2024-02-21T00:23:57;8.27;;;4.28;;
78365;SDS011;67641;59.864;30.464;2024-02-21T00:26:23;7.68;;;4.32;;
78365;SDS011;67641;59.864;30.464;2024-02-21T00:28:51;9.20;;;3.90;;
78365;SDS011;67641;59.864;30.464;2024-02-21T00:31:18;9.02;;;4.68;;
78365;SDS011;67641;59.864;30.464;2024-02-21T00:33:44;8.20;;;4.25;;
78365;SDS011;67641;59.864;30.464;2024-02-21T00:36:10;7.82;;;4.35;;
78365;SDS011;67641;59.864;30.464;2024-02-21T00:38:37;8.65;;;4.38;;
78365;SDS011;67641;59.864;30.464;2024-02-21T00:41:03;8.75;;;4.07;;
78365;SDS011;67641;59.864;30.464;2024-02-21T00:43:30;7.70;;;3.97;;
78365;SDS011;67641;59.864;30.464;2024-02-21T00:45:56;7.82;;;4.55;;
78365;SDS011;67641;59.864;30.464;2024-02-21T00:48:23;9.20;;;4.30;;
78365;SDS011;67641;59.864;30.464;2024-02-21T00:50:49;8.68;;;4.07;;
78365;SDS011;67641;59.864;30.464;2024-02-21T00:53:16;8.88;;;4.18;;
78365;SDS011;67641;59.864;30.464;2024-02-21T00:55:42;10.63;;;4.10;;
78365;SDS011;67641;59.864;30.464;2024-02-21T00:58:09;10.25;;;4.50;;
78365;SDS011;67641;59.864;30.464;2024-02-21T01:00:35;7.97;;;3.80;;
78365;SDS011;67641;59.864;30.464;2024-02-21T01:03:02;8.57;;;4.47;;
78365;SDS011;67641;59.864;30.464;2024-02-21T01:05:29;7.50;;;4.53;;
78365;SDS011;67641;59.864;30.464;2024-02-21T01:07:55;9.48;;;4.30;;
78365;SDS011;67641;59.864;30.464;2024-02-21T01:10:22;6.93;;;3.83;;
78365;SDS011;67641;59.864;30.464;2024-02-21T01:12:49;6.95;;;4.10;;
78365;SDS011;67641;59.864;30.464;2024-02-21T01:15:15;7.72;;;4.28;;
78365;SDS011;67641;59.864;30.464;2024-02-21T01:17:42;6.78;;;4.10;;
78365;SDS011;67641;59.864;30.464;2024-02-21T01:20:08;8.32;;;3.85;;
78365;SDS011;67641;59.864;30.464;2024-02-21T01:22:35;7.13;;;3.78;;
78365;SDS011;67641;59.864;30.464;2024-02-21T01:25:02;7.78;;;4.15;;
78365;SDS011;67641;59.864;30.464;2024-02-21T01:27:28;10.93;;;4.35;;
78365;SDS011;67641;59.864;30.464;2024-02-21T01:29:55;7.40;;;3.85;;
78365;SDS011;67641;59.864;30.464;2024-02-21T01:32:21;8.63;;;4.18;;
78365;SDS011;67641;59.864;30.464;2024-02-21T01:34:50;7.80;;;3.95;;
78365;SDS011;67641;59.864;30.464;2024-02-21T01:37:17;8.95;;;4.30;;
78365;SDS011;67641;59.864;30.464;2024-02-21T01:39:43;7.30;;;4.10;;
78365;SDS011;67641;59.864;30.464;2024-02-21T01:42:10;7.43;;;4.25;;
78365;SDS011;67641;59.864;30.464;2024-02-21T01:44:36;10.90;;;4.88;;
78365;SDS011;67641;59.864;30.464;2024-02-21T01:47:03;9.18;;;4.03;;
78365;SDS011;67641;59.864;30.464;2024-02-21T01:49:30;9.05;;;4.93;;
78365;SDS011;67641;59.864;30.464;2024-02-21T01:51:57;9.38;;;4.68;;
78365;SDS011;67641;59.864;30.464;2024-02-21T01:54:23;6.95;;;4.15;;
78365;SDS011;67641;59.864;30.464;2024-02-21T01:56:54;10.02;;;4.88;;
78365;SDS011;67641;59.864;30.464;2024-02-21T01:59:21;7.10;;;3.80;;
78365;SDS011;67641;59.864;30.464;2024-02-21T02:01:48;6.47;;;4.03;;
78365;SDS011;67641;59.864;30.464;2024-02-21T02:04:16;8.38;;;4.30;;
78365;SDS011;67641;59.864;30.464;2024-02-21T02:06:43;6.20;;;3.53;;
78365;SDS011;67641;59.864;30.464;2024-02-21T02:09:09;9.52;;;4.40;;
78365;SDS011;67641;59.864;30.464;2024-02-21T02:11:36;8.88;;;4.32;;
78365;SDS011;67641;59.864;30.464;2024-02-21T02:14:03;7.60;;;4.05;;
78365;SDS011;67641;59.864;30.464;2024-02-21T02:16:29;8.27;;;4.30;;
78365;SDS011;67641;59.864;30.464;2024-02-21T02:18:55;7.60;;;4.00;;
78365;SDS011;67641;59.864;30.464;2024-02-21T02:24:04;6.57;;;3.17;;
78365;SDS011;67641;59.864;30.464;2024-02-21T02:26:31;8.63;;;3.80;;
78365;SDS011;67641;59.864;30.464;2024-02-21T02:28:57;5.22;;;3.40;;
78365;SDS011;67641;59.864;30.464;2024-02-21T02:31:24;8.25;;;4.20;;
78365;SDS011;67641;59.864;30.464;2024-02-21T02:33:50;6.47;;;4.00;;
78365;SDS011;67641;59.864;30.464;2024-02-21T02:36:17;10.68;;;4.22;;
78365;SDS011;67641;59.864;30.464;2024-02-21T02:38:44;7.70;;;4.05;;
78365;SDS011;67641;59.864;30.464;2024-02-21T02:41:10;8.70;;;4.10;;
78365;SDS011;67641;59.864;30.464;2024-02-21T02:43:37;8.82;;;4.30;;
78365;SDS011;67641;59.864;30.464;2024-02-21T02:46:03;6.82;;;3.80;;
78365;SDS011;67641;59.864;30.464;2024-02-21T02:48:30;7.05;;;3.80;;
78365;SDS011;67641;59.864;30.464;2024-02-21T02:50:56;7.57;;;4.28;;
78365;SDS011;67641;59.864;30.464;2024-02-21T02:53:23;7.28;;;4.10;;
78365;SDS011;67641;59.864;30.464;2024-02-21T02:55:49;7.47;;;4.07;;
78365;SDS011;67641;59.864;30.464;2024-02-21T02:58:16;10.93;;;4.10;;
78365;SDS011;67641;59.864;30.464;2024-02-21T03:00:42;6.78;;;3.83;;
78365;SDS011;67641;59.864;30.464;2024-02-21T03:03:08;7.97;;;4.30;;
78365;SDS011;67641;59.864;30.464;2024-02-21T03:05:35;8.73;;;3.97;;
78365;SDS011;67641;59.864;30.464;2024-02-21T03:08:02;7.82;;;4.10;;
78365;SDS011;67641;59.864;30.464;2024-02-21T03:10:33;8.32;;;3.80;;
78365;SDS011;67641;59.864;30.464;2024-02-21T03:12:59;7.22;;;3.95;;
78365;SDS011;67641;59.864;30.464;2024-02-21T03:15:26;8.45;;;4.32;;
78365;SDS011;67641;59.864;30.464;2024-02-21T03:17:52;7.90;;;3.97;;
78365;SDS011;67641;59.864;30.464;2024-02-21T03:20:19;9.73;;;4.55;;
78365;SDS011;67641;59.864;30.464;2024-02-21T03:22:45;8.63;;;4.30;;
78365;SDS011;67641;59.864;30.464;2024-02-21T03:25:12;8.38;;;4.47;;
78365;SDS011;67641;59.864;30.464;2024-02-21T03:27:40;7.68;;;4.40;;
78365;SDS011;67641;59.864;30.464;2024-02-21T03:30:06;9.00;;;4.50;;
78365;SDS011;67641;59.864;30.464;2024-02-21T03:32:33;6.70;;;4.30;;
78365;SDS011;67641;59.864;30.464;2024-02-21T03:35:00;7.32;;;4.47;;
78365;SDS011;67641;59.864;30.464;2024-02-21T03:37:26;6.88;;;4.13;;
78365;SDS011;67641;59.864;30.464;2024-02-21T03:39:53;6.20;;;3.92;;
78365;SDS011;67641;59.864;30.464;2024-02-21T03:42:19;6.82;;;3.80;;
78365;SDS011;67641;59.864;30.464;2024-02-21T03:44:45;8.88;;;4.75;;
78365;SDS011;67641;59.864;30.464;2024-02-21T03:47:12;7.35;;;4.38;;
78365;SDS011;67641;59.864;30.464;2024-02-21T03:49:38;9.45;;;3.88;;
78365;SDS011;67641;59.864;30.464;2024-02-21T03:52:05;11.30;;;4.72;;
78365;SDS011;67641;59.864;30.464;2024-02-21T03:54:31;10.07;;;4.43;;
78365;SDS011;67641;59.864;30.464;2024-02-21T03:56:58;10.65;;;4.90;;
78365;SDS011;67641;59.864;30.464;2024-02-21T03:59:24;7.95;;;4.40;;
78365;SDS011;67641;59.864;30.464;2024-02-21T04:01:51;8.38;;;4.50;;
78365;SDS011;67641;59.864;30.464;2024-02-21T04:04:18;7.43;;;4.30;;
78365;SDS011;67641;59.864;30.464;2024-02-21T04:06:48;10.02;;;4.15;;
78365;SDS011;67641;59.864;30.464;2024-02-21T04:09:15;6.68;;;4.25;;
78365;SDS011;67641;59.864;30.464;2024-02-21T04:11:42;9.15;;;4.60;;
78365;SDS011;67641;59.864;30.464;2024-02-21T04:14:08;7.45;;;4.75;;
78365;SDS011;67641;59.864;30.464;2024-02-21T04:16:37;9.77;;;4.80;;
78365;SDS011;67641;59.864;30.464;2024-02-21T04:19:04;13.18;;;4.93;;
78365;SDS011;67641;59.864;30.464;2024-02-21T04:21:30;10.52;;;4.47;;
78365;SDS011;67641;59.864;30.464;2024-02-21T04:23:57;11.20;;;4.93;;
78365;SDS011;67641;59.864;30.464;2024-02-21T04:26:24;10.07;;;4.18;;
78365;SDS011;67641;59.864;30.464;2024-02-21T04:28:50;8.30;;;4.90;;
78365;SDS011;67641;59.864;30.464;2024-02-21T04:31:16;10.25;;;4.75;;
78365;SDS011;67641;59.864;30.464;2024-02-21T04:33:43;9.98;;;4.05;;
78365;SDS011;67641;59.864;30.464;2024-02-21T04:36:09;10.10;;;4.40;;
78365;SDS011;67641;59.864;30.464;2024-02-21T04:38:36;9.75;;;4.40;;
78365;SDS011;67641;59.864;30.464;2024-02-21T04:41:02;9.30;;;4.30;;
78365;SDS011;67641;59.864;30.464;2024-02-21T04:43:28;10.02;;;5.10;;
78365;SDS011;67641;59.864;30.464;2024-02-21T04:45:55;11.80;;;5.53;;
78365;SDS011;67641;59.864;30.464;2024-02-21T04:48:21;8.52;;;4.90;;
78365;SDS011;67641;59.864;30.464;2024-02-21T04:50:48;16.63;;;5.25;;
78365;SDS011;67641;59.864;30.464;2024-02-21T04:53:16;11.30;;;5.28;;
78365;SDS011;67641;59.864;30.464;2024-02-21T04:55:43;11.35;;;5.13;;
78365;SDS011;67641;59.864;30.464;2024-02-21T04:58:09;11.23;;;5.68;;
78365;SDS011;67641;59.864;30.464;2024-02-21T05:00:36;8.82;;;4.50;;
78365;SDS011;67641;59.864;30.464;2024-02-21T05:03:02;9.82;;;4.80;;
78365;SDS011;67641;59.864;30.464;2024-02-21T05:05:29;11.13;;;4.75;;
78365;SDS011;67641;59.864;30.464;2024-02-21T05:07:55;12.27;;;4.85;;
78365;SDS011;67641;59.864;30.464;2024-02-21T05:10:22;11.23;;;5.28;;
78365;SDS011;67641;59.864;30.464;2024-02-21T05:12:48;10.80;;;4.80;;
78365;SDS011;67641;59.864;30.464;2024-02-21T05:15:15;11.57;;;4.63;;
78365;SDS011;67641;59.864;30.464;2024-02-21T05:17:42;8.70;;;4.47;;
78365;SDS011;67641;59.864;30.464;2024-02-21T05:20:09;10.25;;;4.90;;
78365;SDS011;67641;59.864;30.464;2024-02-21T05:22:36;13.05;;;4.72;;
78365;SDS011;67641;59.864;30.464;2024-02-21T05:25:02;12.82;;;4.72;;
78365;SDS011;67641;59.864;30.464;2024-02-21T05:27:29;13.23;;;4.88;;
78365;SDS011;67641;59.864;30.464;2024-02-21T05:29:55;20.13;;;5.32;;
78365;SDS011;67641;59.864;30.464;2024-02-21T05:32:22;14.43;;;4.43;;
78365;SDS011;67641;59.864;30.464;2024-02-21T05:34:48;13.55;;;5.10;;
78365;SDS011;67641;59.864;30.464;2024-02-21T05:37:15;21.35;;;5.53;;
78365;SDS011;67641;59.864;30.464;2024-02-21T05:39:42;12.55;;;5.15;;
78365;SDS011;67641;59.864;30.464;2024-02-21T05:42:08;16.25;;;5.45;;
78365;SDS011;67641;59.864;30.464;2024-02-21T05:44:35;18.38;;;5.32;;
78365;SDS011;67641;59.864;30.464;2024-02-21T05:47:01;20.70;;;5.43;;
78365;SDS011;67641;59.864;30.464;2024-02-21T05:49:27;20.88;;;5.70;;
78365;SDS011;67641;59.864;30.464;2024-02-21T05:51:54;14.75;;;4.93;;
78365;SDS011;67641;59.864;30.464;2024-02-21T05:54:20;16.92;;;5.15;;
78365;SDS011;67641;59.864;30.464;2024-02-21T05:56:47;13.93;;;4.55;;
78365;SDS011;67641;59.864;30.464;2024-02-21T05:59:13;18.27;;;4.95;;
78365;SDS011;67641;59.864;30.464;2024-02-21T06:01:40;13.10;;;4.55;;
78365;SDS011;67641;59.864;30.464;2024-02-21T06:04:06;17.48;;;4.53;;
78365;SDS011;67641;59.864;30.464;2024-02-21T06:06:32;19.55;;;4.50;;
78365;SDS011;67641;59.864;30.464;2024-02-21T06:09:00;19.00;;;4.57;;
78365;SDS011;67641;59.864;30.464;2024-02-21T06:11:28;11.43;;;4.45;;
78365;SDS011;67641;59.864;30.464;2024-02-21T06:13:55;17.23;;;5.20;;
78365;SDS011;67641;59.864;30.464;2024-02-21T06:16:21;20.05;;;5.00;;
78365;SDS011;67641;59.864;30.464;2024-02-21T06:18:48;17.75;;;4.13;;
78365;SDS011;67641;59.864;30.464;2024-02-21T06:21:14;10.10;;;3.83;;
78365;SDS011;67641;59.864;30.464;2024-02-21T06:23:42;9.05;;;3.42;;
78365;SDS011;67641;59.864;30.464;2024-02-21T06:26:08;9.63;;;3.70;;
78365;SDS011;67641;59.864;30.464;2024-02-21T06:28:35;9.38;;;3.67;;
78365;SDS011;67641;59.864;30.464;2024-02-21T06:31:02;12.38;;;3.63;;
78365;SDS011;67641;59.864;30.464;2024-02-21T06:33:28;8.30;;;3.97;;
78365;SDS011;67641;59.864;30.464;2024-02-21T06:35:55;11.75;;;3.53;;
78365;SDS011;67641;59.864;30.464;2024-02-21T06:38:21;11.02;;;4.10;;
78365;SDS011;67641;59.864;30.464;2024-02-21T06:40:48;10.63;;;3.72;;
78365;SDS011;67641;59.864;30.464;2024-02-21T06:43:17;13.93;;;3.85;;
78365;SDS011;67641;59.864;30.464;2024-02-21T06:45:45;11.05;;;3.50;;
78365;SDS011;67641;59.864;30.464;2024-02-21T06:48:17;10.32;;;3.35;;
78365;SDS011;67641;59.864;30.464;2024-02-21T06:50:44;8.05;;;2.88;;
78365;SDS011;67641;59.864;30.464;2024-02-21T06:53:11;10.02;;;3.30;;
78365;SDS011;67641;59.864;30.464;2024-02-21T06:55:37;11.88;;;3.58;;
78365;SDS011;67641;59.864;30.464;2024-02-21T06:58:04;8.73;;;2.97;;
78365;SDS011;67641;59.864;30.464;2024-02-21T07:00:30;12.80;;;3.40;;
78365;SDS011;67641;59.864;30.464;2024-02-21T07:02:57;13.90;;;3.92;;
78365;SDS011;67641;59.864;30.464;2024-02-21T07:05:24;9.50;;;3.35;;
78365;SDS011;67641;59.864;30.464;2024-02-21T07:07:50;9.80;;;3.30;;
78365;SDS011;67641;59.864;30.464;2024-02-21T07:10:17;5.38;;;2.65;;
78365;SDS011;67641;59.864;30.464;2024-02-21T07:12:43;5.95;;;3.03;;
78365;SDS011;67641;59.864;30.464;2024-02-21T07:15:10;9.43;;;3.00;;
78365;SDS011;67641;59.864;30.464;2024-02-21T07:17:36;6.32;;;2.90;;
78365;SDS011;67641;59.864;30.464;2024-02-21T07:20:03;5.63;;;3.00;;
78365;SDS011;67641;59.864;30.464;2024-02-21T07:22:29;8.02;;;3.25;;
78365;SDS011;67641;59.864;30.464;2024-02-21T07:24:56;5.65;;;2.95;;
78365;SDS011;67641;59.864;30.464;2024-02-21T07:27:22;5.70;;;3.17;;
78365;SDS011;67641;59.864;30.464;2024-02-21T07:29:49;5.90;;;3.00;;
78365;SDS011;67641;59.864;30.464;2024-02-21T07:32:15;6.28;;;2.80;;
78365;SDS011;67641;59.864;30.464;2024-02-21T07:34:42;9.63;;;3.22;;
78365;SDS011;67641;59.864;30.464;2024-02-21T07:37:08;9.00;;;2.95;;
78365;SDS011;67641;59.864;30.464;2024-02-21T07:39:38;8.18;;;3.30;;
78365;SDS011;67641;59.864;30.464;2024-02-21T07:42:04;5.35;;;2.92;;
78365;SDS011;67641;59.864;30.464;2024-02-21T07:44:31;5.55;;;2.65;;
78365;SDS011;67641;59.864;30.464;2024-02-21T07:46:58;8.98;;;3.60;;
78365;SDS011;67641;59.864;30.464;2024-02-21T07:49:24;7.15;;;3.28;;
78365;SDS011;67641;59.864;30.464;2024-02-21T07:51:51;5.45;;;3.22;;
78365;SDS011;67641;59.864;30.464;2024-02-21T07:54:18;5.97;;;2.65;;
78365;SDS011;67641;59.864;30.464;2024-02-21T07:56:45;5.80;;;3.05;;
78365;SDS011;67641;59.864;30.464;2024-02-21T07:59:11;5.63;;;2.80;;
78365;SDS011;67641;59.864;30.464;2024-02-21T08:01:40;6.35;;;2.70;;
78365;SDS011;67641;59.864;30.464;2024-02-21T08:04:06;5.25;;;3.05;;
78365;SDS011;67641;59.864;30.464;2024-02-21T08:06:33;6.05;;;2.92;;
78365;SDS011;67641;59.864;30.464;2024-02-21T08:08:59;5.68;;;2.97;;
78365;SDS011;67641;59.864;30.464;2024-02-21T08:11:26;5.32;;;3.00;;
78365;SDS011;67641;59.864;30.464;2024-02-21T08:13:53;5.78;;;2.67;;
78365;SDS011;67641;59.864;30.464;2024-02-21T08:16:19;5.07;;;2.67;;
78365;SDS011;67641;59.864;30.464;2024-02-21T08:18:45;4.15;;;2.88;;
78365;SDS011;67641;59.864;30.464;2024-02-21T08:21:12;3.72;;;2.42;;
78365;SDS011;67641;59.864;30.464;2024-02-21T08:23:39;4.85;;;2.67;;
78365;SDS011;67641;59.864;30.464;2024-02-21T08:26:06;5.13;;;2.40;;
78365;SDS011;67641;59.864;30.464;2024-02-21T08:28:32;4.68;;;2.58;;
78365;SDS011;67641;59.864;30.464;2024-02-21T08:30:59;4.32;;;2.47;;
78365;SDS011;67641;59.864;30.464;2024-02-21T08:33:26;7.07;;;2.90;;
78365;SDS011;67641;59.864;30.464;2024-02-21T08:35:53;7.63;;;2.90;;
78365;SDS011;67641;59.864;30.464;2024-02-21T08:38:20;8.48;;;4.35;;
78365;SDS011;67641;59.864;30.464;2024-02-21T08:40:46;5.13;;;2.40;;
78365;SDS011;67641;59.864;30.464;2024-02-21T08:43:12;5.30;;;2.28;;
78365;SDS011;67641;59.864;30.464;2024-02-21T08:45:39;4.95;;;2.63;;
78365;SDS011;67641;59.864;30.464;2024-02-21T08:48:05;4.47;;;2.38;;
78365;SDS011;67641;59.864;30.464;2024-02-21T08:50:32;4.60;;;2.58;;
78365;SDS011;67641;59.864;30.464;2024-02-21T08:52:59;6.43;;;2.58;;
78365;SDS011;67641;59.864;30.464;2024-02-21T08:55:25;5.85;;;2.50;;
78365;SDS011;67641;59.864;30.464;2024-02-21T08:57:51;7.13;;;2.67;;
78365;SDS011;67641;59.864;30.464;2024-02-21T09:00:18;3.47;;;2.10;;
78365;SDS011;67641;59.864;30.464;2024-02-21T09:02:49;5.25;;;1.90;;
78365;SDS011;67641;59.864;30.464;2024-02-21T09:05:15;5.30;;;2.10;;
78365;SDS011;67641;59.864;30.464;2024-02-21T09:07:42;3.53;;;1.85;;
78365;SDS011;67641;59.864;30.464;2024-02-21T09:10:09;5.13;;;2.60;;
78365;SDS011;67641;59.864;30.464;2024-02-21T09:12:35;3.90;;;2.22;;
78365;SDS011;67641;59.864;30.464;2024-02-21T09:15:02;4.55;;;2.65;;
78365;SDS011;67641;59.864;30.464;2024-02-21T09:17:29;5.80;;;2.20;;
78365;SDS011;67641;59.864;30.464;2024-02-21T09:19:56;3.45;;;2.20;;
78365;SDS011;67641;59.864;30.464;2024-02-21T09:22:24;5.43;;;2.05;;
78365;SDS011;67641;59.864;30.464;2024-02-21T09:24:51;4.35;;;2.20;;
78365;SDS011;67641;59.864;30.464;2024-02-21T09:27:17;4.85;;;2.40;;
78365;SDS011;67641;59.864;30.464;2024-02-21T09:29:44;3.30;;;2.30;;
78365;SDS011;67641;59.864;30.464;2024-02-21T09:32:10;4.00;;;2.33;;
78365;SDS011;67641;59.864;30.464;2024-02-21T09:34:37;4.50;;;2.05;;
78365;SDS011;67641;59.864;30.464;2024-02-21T09:37:03;4.85;;;2.20;;
78365;SDS011;67641;59.864;30.464;2024-02-21T09:39:30;3.53;;;2.10;;
78365;SDS011;67641;59.864;30.464;2024-02-21T09:41:58;6.38;;;2.35;;
78365;SDS011;67641;59.864;30.464;2024-02-21T09:44:32;5.60;;;2.13;;
78365;SDS011;67641;59.864;30.464;2024-02-21T09:47:03;3.88;;;2.10;;
78365;SDS011;67641;59.864;30.464;2024-02-21T09:49:54;5.63;;;2.05;;
78365;SDS011;67641;59.864;30.464;2024-02-21T09:52:22;6.13;;;2.13;;
78365;SDS011;67641;59.864;30.464;2024-02-21T09:54:50;3.42;;;2.08;;
78365;SDS011;67641;59.864;30.464;2024-02-21T09:57:18;3.65;;;1.92;;
78365;SDS011;67641;59.864;30.464;2024-02-21T09:59:46;3.30;;;2.28;;
78365;SDS011;67641;59.864;30.464;2024-02-21T10:02:12;4.38;;;2.35;;
78365;SDS011;67641;59.864;30.464;2024-02-21T10:04:42;4.75;;;2.38;;
78365;SDS011;67641;59.864;30.464;2024-02-21T10:07:08;3.78;;;2.03;;
78365;SDS011;67641;59.864;30.464;2024-02-21T10:09:35;3.35;;;2.10;;
78365;SDS011;67641;59.864;30.464;2024-02-21T10:12:11;4.18;;;2.22;;
78365;SDS011;67641;59.864;30.464;2024-02-21T10:14:38;3.25;;;2.00;;
78365;SDS011;67641;59.864;30.464;2024-02-21T10:17:04;3.72;;;2.10;;
78365;SDS011;67641;59.864;30.464;2024-02-21T10:19:35;6.53;;;2.45;;
78365;SDS011;67641;59.864;30.464;2024-02-21T10:22:05;4.22;;;2.20;;
78365;SDS011;67641;59.864;30.464;2024-02-21T10:24:35;4.90;;;2.33;;
78365;SDS011;67641;59.864;30.464;2024-02-21T10:27:05;3.83;;;2.20;;
78365;SDS011;67641;59.864;30.464;2024-02-21T10:29:36;5.22;;;2.25;;
78365;SDS011;67641;59.864;30.464;2024-02-21T10:32:07;3.38;;;2.20;;
78365;SDS011;67641;59.864;30.464;2024-02-21T10:34:39;5.82;;;2.45;;
78365;SDS011;67641;59.864;30.464;2024-02-21T10:37:07;5.05;;;2.22;;
78365;SDS011;67641;59.864;30.464;2024-02-21T10:42:10;3.80;;;2.30;;
78365;SDS011;67641;59.864;30.464;2024-02-21T10:44:38;4.82;;;2.25;;
78365;SDS011;67641;59.864;30.464;2024-02-21T10:47:09;5.20;;;2.83;;
78365;SDS011;67641;59.864;30.464;2024-02-21T10:49:39;4.22;;;2.75;;
78365;SDS011;67641;59.864;30.464;2024-02-21T10:52:10;3.55;;;2.38;;
78365;SDS011;67641;59.864;30.464;2024-02-21T10:55:09;4.82;;;2.22;;
78365;SDS011;67641;59.864;30.464;2024-02-21T10:57:37;4.50;;;2.30;;
78365;SDS011;67641;59.864;30.464;2024-02-21T11:00:05;4.82;;;2.58;;
78365;SDS011;67641;59.864;30.464;2024-02-21T11:02:38;6.07;;;2.20;;
78365;SDS011;67641;59.864;30.464;2024-02-21T11:05:06;7.32;;;2.78;;
78365;SDS011;67641;59.864;30.464;2024-02-21T11:07:35;8.20;;;2.97;;
78365;SDS011;67641;59.864;30.464;2024-02-21T11:10:03;5.18;;;2.30;;
78365;SDS011;67641;59.864;30.464;2024-02-21T11:12:32;3.83;;;2.22;;
78365;SDS011;67641;59.864;30.464;2024-02-21T11:15:05;3.55;;;2.17;;
78365;SDS011;67641;59.864;30.464;2024-02-21T11:17:32;5.22;;;2.35;;
78365;SDS011;67641;59.864;30.464;2024-02-21T11:19:58;5.30;;;2.50;;
78365;SDS011;67641;59.864;30.464;2024-02-21T11:22:40;4.85;;;2.42;;
78365;SDS011;67641;59.864;30.464;2024-02-21T11:25:10;5.68;;;2.30;;
78365;SDS011;67641;59.864;30.464;2024-02-21T11:27:45;4.70;;;2.30;;
78365;SDS011;67641;59.864;30.464;2024-02-21T11:30:12;5.55;;;2.17;;
78365;SDS011;67641;59.864;30.464;2024-02-21T11:32:40;5.20;;;2.25;;
78365;SDS011;67641;59.864;30.464;2024-02-21T11:35:07;3.35;;;1.95;;
78365;SDS011;67641;59.864;30.464;2024-02-21T11:37:34;5.50;;;2.20;;
78365;SDS011;67641;59.864;30.464;2024-02-21T11:40:05;6.05;;;2.45;;
78365;SDS011;67641;59.864;30.464;2024-02-21T11:42:35;4.63;;;2.42;;
78365;SDS011;67641;59.864;30.464;2024-02-21T11:45:02;5.15;;;2.50;;
78365;SDS011;67641;59.864;30.464;2024-02-21T11:47:29;4.05;;;2.15;;
78365;SDS011;67641;59.864;30.464;2024-02-21T11:49:55;6.10;;;2.38;;
78365;SDS011;67641;59.864;30.464;2024-02-21T11:52:22;3.88;;;2.10;;
78365;SDS011;67641;59.864;30.464;2024-02-21T11:54:54;4.70;;;2.13;;
78365;SDS011;67641;59.864;30.464;2024-02-21T11:57:30;4.43;;;2.50;;
78365;SDS011;67641;59.864;30.464;2024-02-21T11:59:56;5.75;;;2.30;;
78365;SDS011;67641;59.864;30.464;2024-02-21T12:02:23;4.40;;;2.40;;
78365;SDS011;67641;59.864;30.464;2024-02-21T12:04:49;3.83;;;2.13;;
78365;SDS011;67641;59.864;30.464;2024-02-21T12:07:16;5.30;;;2.35;;
78365;SDS011;67641;59.864;30.464;2024-02-21T12:09:44;6.60;;;2.72;;
78365;SDS011;67641;59.864;30.464;2024-02-21T12:12:10;6.53;;;2.53;;
78365;SDS011;67641;59.864;30.464;2024-02-21T12:14:36;3.92;;;2.35;;
78365;SDS011;67641;59.864;30.464;2024-02-21T12:17:04;5.65;;;3.00;;
78365;SDS011;67641;59.864;30.464;2024-02-21T12:19:30;5.05;;;2.35;;
78365;SDS011;67641;59.864;30.464;2024-02-21T12:22:01;5.00;;;2.70;;
78365;SDS011;67641;59.864;30.464;2024-02-21T12:24:31;4.15;;;2.58;;
78365;SDS011;67641;59.864;30.464;2024-02-21T12:26:58;3.88;;;2.03;;
78365;SDS011;67641;59.864;30.464;2024-02-21T12:29:24;3.60;;;2.17;;
78365;SDS011;67641;59.864;30.464;2024-02-21T12:31:51;3.40;;;2.30;;
78365;SDS011;67641;59.864;30.464;2024-02-21T12:34:19;3.65;;;2.15;;
78365;SDS011;67641;59.864;30.464;2024-02-21T12:36:47;4.68;;;2.40;;
78365;SDS011;67641;59.864;30.464;2024-02-21T12:39:14;5.72;;;2.15;;
78365;SDS011;67641;59.864;30.464;2024-02-21T12:41:41;4.18;;;2.38;;
78365;SDS011;67641;59.864;30.464;2024-02-21T12:44:10;3.80;;;2.25;;
78365;SDS011;67641;59.864;30.464;2024-02-21T12:46:39;4.53;;;2.55;;
78365;SDS011;67641;59.864;30.464;2024-02-21T12:49:06;4.43;;;2.35;;
78365;SDS011;67641;59.864;30.464;2024-02-21T12:51:35;4.70;;;2.42;;
78365;SDS011;67641;59.864;30.464;2024-02-21T12:54:03;5.80;;;2.83;;
78365;SDS011;67641;59.864;30.464;2024-02-21T12:56:30;4.68;;;2.53;;
78365;SDS011;67641;59.864;30.464;2024-02-21T12:58:57;5.40;;;2.42;;
78365;SDS011;67641;59.864;30.464;2024-02-21T13:01:23;4.85;;;2.38;;
78365;SDS011;67641;59.864;30.464;2024-02-21T13:03:54;3.95;;;2.13;;
78365;SDS011;67641;59.864;30.464;2024-02-21T13:06:21;3.78;;;2.33;;
78365;SDS011;67641;59.864;30.464;2024-02-21T13:08:48;4.50;;;2.40;;
78365;SDS011;67641;59.864;30.464;2024-02-21T13:11:15;4.32;;;2.38;;
78365;SDS011;67641;59.864;30.464;2024-02-21T13:13:41;7.78;;;4.20;;
78365;SDS011;67641;59.864;30.464;2024-02-21T13:16:08;5.57;;;3.00;;
78365;SDS011;67641;59.864;30.464;2024-02-21T13:18:36;4.88;;;2.47;;
78365;SDS011;67641;59.864;30.464;2024-02-21T13:21:05;4.65;;;2.20;;
78365;SDS011;67641;59.864;30.464;2024-02-21T13:23:32;6.15;;;2.40;;
78365;SDS011;67641;59.864;30.464;2024-02-21T13:25:59;4.07;;;2.13;;
78365;SDS011;67641;59.864;30.464;2024-02-21T13:28:25;3.78;;;2.30;;
78365;SDS011;67641;59.864;30.464;2024-02-21T13:30:52;4.00;;;2.22;;
78365;SDS011;67641;59.864;30.464;2024-02-21T13:33:19;5.07;;;2.63;;
78365;SDS011;67641;59.864;30.464;2024-02-21T13:35:45;4.07;;;1.92;;
78365;SDS011;67641;59.864;30.464;2024-02-21T13:38:12;6.40;;;2.60;;
78365;SDS011;67641;59.864;30.464;2024-02-21T13:40:39;4.88;;;2.22;;
78365;SDS011;67641;59.864;30.464;2024-02-21T13:43:08;5.72;;;2.50;;
78365;SDS011;67641;59.864;30.464;2024-02-21T13:45:34;4.70;;;2.30;;
78365;SDS011;67641;59.864;30.464;2024-02-21T13:48:00;4.60;;;2.10;;
78365;SDS011;67641;59.864;30.464;2024-02-21T13:50:29;5.25;;;2.40;;
78365;SDS011;67641;59.864;30.464;2024-02-21T13:52:57;6.00;;;2.05;;
78365;SDS011;67641;59.864;30.464;2024-02-21T13:55:24;4.55;;;2.15;;
78365;SDS011;67641;59.864;30.464;2024-02-21T14:00:19;3.42;;;2.08;;
78365;SDS011;67641;59.864;30.464;2024-02-21T14:02:46;5.25;;;2.40;;
78365;SDS011;67641;59.864;30.464;2024-02-21T14:05:12;9.65;;;2.42;;
78365;SDS011;67641;59.864;30.464;2024-02-21T14:07:40;5.72;;;2.45;;
78365;SDS011;67641;59.864;30.464;2024-02-21T14:10:07;4.80;;;2.08;;
78365;SDS011;67641;59.864;30.464;2024-02-21T14:12:35;6.15;;;2.38;;
78365;SDS011;67641;59.864;30.464;2024-02-21T14:15:02;5.78;;;2.35;;
78365;SDS011;67641;59.864;30.464;2024-02-21T14:17:28;3.95;;;2.25;;
78365;SDS011;67641;59.864;30.464;2024-02-21T14:19:54;6.40;;;2.78;;
78365;SDS011;67641;59.864;30.464;2024-02-21T14:22:21;6.93;;;2.55;;
78365;SDS011;67641;59.864;30.464;2024-02-21T14:24:47;5.97;;;2.50;;
78365;SDS011;67641;59.864;30.464;2024-02-21T14:27:14;5.50;;;2.67;;
78365;SDS011;67641;59.864;30.464;2024-02-21T14:29:40;6.32;;;2.63;;
78365;SDS011;67641;59.864;30.464;2024-02-21T14:32:07;6.20;;;2.70;;
78365;SDS011;67641;59.864;30.464;2024-02-21T14:34:35;4.72;;;2.67;;
78365;SDS011;67641;59.864;30.464;2024-02-21T14:37:02;5.18;;;2.50;;
78365;SDS011;67641;59.864;30.464;2024-02-21T14:39:29;5.97;;;3.20;;